Search for airport 
image banner adimage banner adimage banner ad
image banner ad

1CL5 - Pomerado Hospital

Located in Poway, United States

ICAO - 1CL5, IATA -

Data provided by Airmate  

General information

Coordinates: N32°59'46" W117°3'20"
Elevation is 653 feet MSL.
Magnetic variation is 14° East
View others Airports in California

Operational data

Special qualification required
Current time UTC:
Current local time:
Weather at : KRNM - Ramona ( 14 km )
METAR: KRNM 210253Z 29003KT 10SM CLR 18/13 A2997 RMK AO2 SLP139 T01830133 53016
View NOTAMs / SUP AIP / TFR affecting this airport [VIEW]
Communications frequencies: [VIEW]

Runways:

Airport contact information

Address: Poway United States

Satellite view of 1CL5